Renner Field-Goodland Municipal Airport Goodland US
ICAO: KGLD
IATA: GLD
Category: Medium
Scheduled Services: No

Elevation: 3656 ft
TransAlt. 18000 ft.

Airport Communications:
ASOS:121.025
DENVER CNTR:132.5
WICHITA RDO:122.4
CTAF/UNICOM:122.95

KGLD Zoom In..

Runways:

(A) RW 05 length 3501 ft width 75 ft
---- / hdg 54

(B) RW 12 length 5499 ft width 100 ft
---- / hdg 125

(C) RW 17 length 1781 ft width 40 ft
---- / hdg 171

(D) RW 23 length 3501 ft width 75 ft
---- / hdg 234

(E) RW 30 length 5499 ft width 100 ft
ILS 108.90 / hdg 305

(F) RW 35 length 1781 ft width 40 ft
---- / hdg 351

Location; KGLD
Day. 15 / Time. 22.53 Zulu
* Altimeter: 30.11
* Temperature: 30° c. 86°f.
* Wind from: 060° Speed 16 kn with Gusts up to 22 kn.
Dewpoint: 18° c.
Visibility: 10 Statute Miles.
Clouds: Scattered 5000 ft.
Clouds: Scattered 6500 ft.

KGLD 152253Z AUTO 06016G22KT 10SM SCT050 SCT065 30/18 A3011 RMK AO2 PK WND 08029/2224 SLP151 T03000178


Wind From 060°
Speed 16 kn.

 
 
jpsmedia.com for Web Design worldairports.se 2018   terms of use